sim
Sign-in with your pilot id or email,
or register
Callsign
Passwort

Schedule Details

Flight Number: DLH2477
Departure: London Heathrow Airport (EGLL) at 16:50
Arrival: Munich Airport (EDDM) at 18:35
Route: Lufthansa Passenger Schedule. Enter filed route here before submitting Pirep.

Weather Information
Getting current METAR information for EGLL 251020Z AUTO 31015KT 9999 BKN031 12/05 Q1002 NOSIG
Getting current METAR information for EDDM 251020Z 26005KT 9999 -RA FEW012 SCT020 BKN040 10/08 Q1002 NOSIG

Schedule Frequency

Route Map